Airfield :
LOGIN :

Register | Disclaimer

   EN    FR    IT 

 










Legend :    VFR   Marginal VFR   IFR   Intensive IFR   Very Intensive IFR
Visi :
Ceiling :
>= 8 km
>= 3000ft
5 to 8 km
1000 to 3000 ft
1500m to 5 km
500 to 1000 ft
800 to 1500m
200 to 500 ft
< 800m
< 200 ft
Symbols :   Thunderstorms  Fog  Heavy snow  Heavy precipitations  Wind > 20 kt
SIGMETs :     Misc.  Thunderstorms  Icing  Turbulence  Mountain Waves  Volcanic Ashes






- Airport Elevation : 106 ft
- IATA code : NRN


EDLV - Weeze

CURRENT METAR :
  • 270820Z 18009KT 150V210 CAVOK 03/01 Q1001

EXPIRED METARs :
  • 270750Z 18008KT 160V220 CAVOK 03/01 Q1001
  • 270720Z 18008KT CAVOK 02/01 Q1001
  • 270650Z 19008KT CAVOK 02/01 Q1002
  • 270620Z 19007KT CAVOK 02/01 Q1002
  • 270550Z 18007KT CAVOK 02/01 Q1003

TAF TAF EDLV
Valid from the 27 at 06:00 until the 28 at 06:00 UTC


270500Z 2706/2806 21007KT CAVOK
BECMG 2708/2711 15007KT BKN012
BECMG 2711/2714 09005KT BKN007
TEMPO 2712/2721 4000 RA BKN004
TEMPO 2714/2718 VRB03KT
BECMG 2716/2719 27007KT
PROB30
TEMPO 2718/2721 2500 SNRA
BECMG 2722/2801 SCT010



MET'MAP, your aeronautical weather chart ! - Copyright ORBIFLY December 2007 - Disclaimer

ORBIFLY MET'MAP TEAM :

Programming & Development : Alexandra Zaïnal
Concept & original design : Baudouin d'Aumeries
Assistance for programming : Marc-Olivier Méhu
Technical & hardware support : Manuel Goepfert

Contact : metmap@orbifly.com




SOURCES & CREDITS :

   NOAA